Ault Field, Washington
Current Conditions -  °F | °C
As of 9:56 PM on Sunday 19 Oct 2014 (Local Time) from KNUW Reporting Station
Light Rain Light Rain  
Wind Chill: 61°   Ceiling: 8500
Heat Index: 61°   Visibility: 10mi
Dew Point: 54°   Wind: 6mph
Humidity: 78%   Direction: 200°SSW
Pressure: 29.67"   Gusts: NA
Location:  48.3182°N, 122.634°W
Report Text: KNUW 200456Z 20005KT 10SM -RA FEW012 SCT060 OVC085 16/12 A2967 RMK AO2 RAE05B33 SLP050 P0000 T01610122 $
Loading
Personal Weather Stations






























Interactive Weather Map
Tropical Storm Tracking
New forecast layout! Learn more

10-Day Weather Forecast

Advertisements
Track Severe Weather on mobile